AirNav   Air Wisconsin Up To $57,000 Bonus
 
 1085 users online  

NH65 Dean Kamen II Heliport
Bedford, New Hampshire, USA

GOING TO BEDFORD?


FAA INFORMATION EFFECTIVE 02 JANUARY 2020

Location

FAA Identifier: NH65
Lat/Long: 42-55-20.3060N 071-30-30.2440W
42-55.338433N 071-30.504067W
42.9223072,-71.5084011
(estimated)
Elevation: 500 ft. / 152 m (estimated)
Variation: 16W (1990)
From city: 2 miles S of BEDFORD, NH
Time zone: UTC -5 (UTC -4 during Daylight Saving Time)
Zip code: 03110

Heliport Operations

Heliport use: Private use, PERSONAL USE.
Activation date: 12/1991
Control tower: no
ARTCC: BOSTON CENTER
FSS: BANGOR FLIGHT SERVICE STATION
Attendance: UNATNDD
Segmented circle: no
Lights: FOR PERIMETER LGTS CALL 603-669-5139.

Heliport Communications

WX ASOS at MHT (3 nm E): 119.55 (603-621-1766)
WX AWOS-3PT at ASH (8 nm S): 125.1 (603-578-0473)
WX ASOS at CON (17 nm N): 132.325 (603-224-6558)

Nearby radio navigation aids

VOR radial/distance  VOR name  Freq  Var
MHTr313/6.9MANCHESTER VOR/DME114.4015W
CONr186/18.1CONCORD VOR/DME112.9015W
LWMr316/21.2LAWRENCE VOR/DME112.5015W
PSMr268/31.2PEASE VOR/DME116.5016W
GDMr061/33.1GARDNER VOR/DME110.6014W
EENr091/35.3KEENE VORTAC109.4014W

 
NDB name  Hdg/Dist  Freq  Var  ID
FITZY029/3.620915WMJ -- .---
EPSOM208/12.021616WCO -.-. ---
ROLLINS255/34.826016WESG . ... --.

Heliport Services

Runway Information

Helipad H1

Dimensions: 75 x 75 ft. / 23 x 23 m
Surface: gravel
Runway edge lights: PERI
Latitude: 42-55.338433N
Longitude: 071-30.504067W
Elevation: 500.0 ft.
Traffic pattern: leftleft

Heliport Ownership and Management from official FAA records

Ownership: Privately-owned
Owner: DEAN KAMEN
15 WESTWIND DRIVE
BEDFORD, NH 03110
Phone 603-472-5823
Manager: DEAN KAMEN
340 COMMERCIAL ST
MANCHESTER, NH 03101
Phone 603-669-5139

Additional Remarks

FOR CD CTC BOSTON APCH AT 603-594-5551.

Instrument Procedures

There are no published instrument procedures at NH65.

Some nearby airports with instrument procedures:

KMHT - Manchester Airport (3 nm E)
KASH - Boire Field Airport (8 nm S)
KCON - Concord Municipal Airport (17 nm N)
KLWM - Lawrence Municipal Airport (21 nm SE)
KAFN - Jaffrey Airport-Silver Ranch (23 nm W)
 
Loc | Ops | Rwys | IFR | FBO | Links
Com | Nav | Svcs | Stats | Notes
Area around NH65 (Dean Kamen II Heliport)
 
Road maps at: MapQuest Bing Google
 
Aerial photo
No photo
 
Sectional chart

 
Airport distance calculator
Flying to Dean Kamen II Heliport? Find the distance to fly.

From to NH65

Sunrise and sunset
Times for 26-Jan-2020
 Local
(UTC-5)
 Zulu
(UTC)
Morning civil twilight06:3711:37
Sunrise07:0812:08
Sunset16:4921:49
Evening civil twilight17:2022:20

Current date and time
Zulu (UTC)  26-Jan-2020 23:26:02
Local (UTC-5)  26-Jan-2020 18:26:02
 
METAR
KMHT 
3nm E 
262253Z 25008KT 10SM BKN049 05/M04 A2964 RMK AO2 SLP055 T00501039
KASH 
9nm S 
262256Z 00000KT 10SM BKN048 04/M03 A2967 RMK AO2 SLP054 T00441028
KCON 
17nm N 
262251Z AUTO 26006KT 10SM SCT050 03/M04 A2964 RMK AO2 SLP041 T00331039
TAF
KMHT 
3nm E 
261720Z 2618/2718 28010KT P6SM FEW030 FM270200 22003KT P6SM BKN100
KCON 
17nm N 
261720Z 2618/2718 28010KT P6SM SCT030 FM270200 23003KT P6SM BKN100
NOTAMs
Click for the latest NOTAMs
NOTAMs are issued by the DoD/FAA and will open in a separate window not controlled by AirNav.

 

 
 

Would you like to see your business listed on this page?

 If your business provides an interesting product or service to pilots, flight crews, aircraft, or users of the Dean Kamen II Heliport, you should consider listing it here.  To start the listing process, click on the button below
 
Add a business
 

Other Pages about Dean Kamen II Heliport

Update a link
 
Copyright © AirNav, LLC. All rights reserved. Privacy Policy  Contact